Aérodrome :
LOGIN :

S'inscrire | Disclaimer

   EN    FR    IT 

 










Légende :    VFR   VFR Marginal   IFR   IFR Intensif   IFR Très Intensif
Visi : 
Plafond : 
>= 8 km
>= 3000ft
5 à 8 km
1000 à 3000 ft
1500m à 5 km
500 à 1000 ft
800 à 1500m
200 à 500 ft
< 800m
< 200 ft
Symboles :   Orages  Brouillard  Fortes neiges  Fortes précipitations  Vent > 20 kt
SIGMETs :   Divers  Orages  Givrage  Turbulence  Onde Orograph.  Cendres Volcan.







- Altitude de l'aérodrome : -11 ft
- Code IATA : AMS


EHAM - Amsterdam Schiphol

DERNIER METAR :
  • 220825Z 07008KT CAVOK 00/M04 Q1026 NOSIG

METARs EXPIRÉS :
  • 220755Z 07009KT CAVOK M00/M04 Q1026 NOSIG
  • 220725Z 07008KT CAVOK M01/M05 Q1026 NOSIG
  • 220655Z 07009KT 040V110 CAVOK M02/M05 Q1026 NOSIG
  • 220625Z 07009KT CAVOK M01/M05 Q1025 NOSIG
  • 220555Z 07011KT CAVOK M01/M05 Q1025 NOSIG

TAF TAF EHAM
Valide du 22 à 06h jusqu'au 23 à 12h UTC


220454Z 2206/2312 07007KT CAVOK
BECMG 2209/2212 07012KT
BECMG 2216/2219 06007KT
BECMG 2301/2304 7000
PROB30 2302/2309 4000 BR
BECMG 2308/2311 07014KT CAVOK
Pas de NOTAMs connus pour ce terrain.



MET'MAP, la Météo Aéronautique d'un coup d'oeil ! - Copyright ORBIFLY Décembre 2007 - Disclaimer

ORBIFLY MET'MAP TEAM :

Programmation & Développement : Alexandra Zaïnal
Conception & Développement : Baudouin d'Aumeries
Co-Programmation & Développement : Marc-Olivier Méhu
Soutien technique & logistique : Manuel Goepfert

Contact : metmap@orbifly.com




SOURCES & CREDITS :

   NOAA